createdAt,value
2019-06-08T00:01:47.946Z,17.05
2019-06-08T00:04:16.553Z,15.48
2019-06-08T00:06:44.903Z,14.43
2019-06-08T00:09:13.264Z,10.98
2019-06-08T00:11:41.630Z,16.82
2019-06-08T00:14:09.981Z,14.38
2019-06-08T00:16:38.362Z,15.50
2019-06-08T00:19:06.729Z,20.92
2019-06-08T00:21:35.147Z,12.98
2019-06-08T00:24:03.897Z,12.50
2019-06-08T00:26:32.285Z,17.60
2019-06-08T00:29:00.641Z,15.23
2019-06-08T00:31:29.025Z,13.43
2019-06-08T00:33:57.394Z,13.05
2019-06-08T00:36:25.747Z,11.28
2019-06-08T00:38:54.117Z,21.17
2019-06-08T00:41:23.688Z,16.57
2019-06-08T00:43:52.236Z,14.33
2019-06-08T00:46:21.404Z,20.27
2019-06-08T00:48:49.772Z,14.47
2019-06-08T00:51:19.002Z,19.80
2019-06-08T00:53:47.474Z,14.50
2019-06-08T00:56:15.830Z,13.70
2019-06-08T00:58:44.181Z,12.70
2019-06-08T01:01:12.628Z,13.03
2019-06-08T01:03:40.976Z,15.23
2019-06-08T01:06:09.355Z,17.27
2019-06-08T01:08:37.709Z,12.55
2019-06-08T01:11:06.083Z,18.05
2019-06-08T01:13:34.469Z,12.95
2019-06-08T01:16:02.829Z,12.07
2019-06-08T01:18:31.187Z,10.82
2019-06-08T01:20:59.560Z,12.25
2019-06-08T01:23:27.963Z,14.33
2019-06-08T01:25:56.307Z,13.13
2019-06-08T01:28:26.035Z,14.98
2019-06-08T01:30:54.632Z,15.45
2019-06-08T01:33:22.996Z,10.88
2019-06-08T01:35:51.357Z,12.47
2019-06-08T01:38:20.978Z,9.88
2019-06-08T01:40:49.491Z,17.48
2019-06-08T01:43:17.872Z,18.40
2019-06-08T01:45:46.255Z,10.03
2019-06-08T01:48:20.208Z,11.33
2019-06-08T01:50:44.620Z,15.93
2019-06-08T01:53:12.979Z,13.78
2019-06-08T01:55:41.357Z,13.55
2019-06-08T01:58:09.717Z,12.40
2019-06-08T02:00:41.452Z,17.87
2019-06-08T02:03:08.112Z,15.03
2019-06-08T02:05:36.475Z,13.13
2019-06-08T02:08:04.897Z,18.40
2019-06-08T02:10:33.275Z,12.70
2019-06-08T02:13:01.632Z,13.10
2019-06-08T02:15:31.886Z,12.28
2019-06-08T02:18:00.004Z,13.75
2019-06-08T02:20:28.752Z,21.33
2019-06-08T02:22:57.155Z,12.55
2019-06-08T02:25:29.422Z,20.05
2019-06-08T02:30:32.727Z,13.60
2019-06-08T02:32:59.796Z,19.37
2019-06-08T02:35:28.172Z,12.10
2019-06-08T02:38:00.960Z,15.23
2019-06-08T02:40:30.804Z,14.75
2019-06-08T02:42:59.903Z,18.48
2019-06-08T02:45:29.744Z,15.40
2019-06-08T02:47:58.304Z,15.70
2019-06-08T02:50:49.288Z,15.43
2019-06-08T02:53:18.429Z,14.30
2019-06-08T02:55:47.836Z,16.05
2019-06-08T02:58:17.451Z,13.03
2019-06-08T03:00:51.135Z,17.02
2019-06-08T03:03:19.503Z,16.23
2019-06-08T03:05:49.789Z,18.82
2019-06-08T03:08:18.225Z,14.43
2019-06-08T03:10:46.592Z,13.22
2019-06-08T03:13:14.952Z,14.23
2019-06-08T03:15:43.861Z,17.05
2019-06-08T03:18:12.299Z,13.45
2019-06-08T03:20:42.302Z,14.85
2019-06-08T03:23:10.659Z,18.37
2019-06-08T03:25:47.383Z,16.35
2019-06-08T03:28:09.114Z,17.77
2019-06-08T03:30:44.628Z,13.68
2019-06-08T03:33:07.502Z,17.20
2019-06-08T03:35:40.446Z,17.52
2019-06-08T03:38:05.881Z,19.30
2019-06-08T03:40:35.805Z,21.80
2019-06-08T03:43:04.269Z,13.75
2019-06-08T03:45:34.177Z,16.45
2019-06-08T03:48:02.595Z,13.78
2019-06-08T03:50:31.064Z,17.32
2019-06-08T03:52:59.423Z,18.10
2019-06-08T03:55:27.704Z,17.82
2019-06-08T03:57:56.076Z,23.38
2019-06-08T04:00:24.440Z,19.90
2019-06-08T04:02:52.817Z,18.52
2019-06-08T04:05:21.185Z,15.78
2019-06-08T04:07:50.438Z,17.27
2019-06-08T04:10:18.934Z,19.40
2019-06-08T04:12:47.296Z,16.70
2019-06-08T04:15:15.835Z,16.20
2019-06-08T04:17:44.312Z,20.08
2019-06-08T04:20:13.277Z,10.78
2019-06-08T04:22:46.823Z,19.02
2019-06-08T04:25:14.734Z,20.32
2019-06-08T04:27:44.620Z,18.30
2019-06-08T04:30:14.584Z,17.15
2019-06-08T04:32:44.708Z,15.75
2019-06-08T04:35:12.979Z,13.95
2019-06-08T04:37:42.591Z,12.70
2019-06-08T04:40:11.521Z,22.30
2019-06-08T04:42:41.554Z,19.42
2019-06-08T04:45:09.906Z,11.65
2019-06-08T04:47:38.488Z,14.13
2019-06-08T04:50:21.906Z,13.03
2019-06-08T04:52:39.034Z,15.93
2019-06-08T04:55:07.143Z,10.25
2019-06-08T04:57:35.493Z,14.07
2019-06-08T05:00:11.622Z,18.52
2019-06-08T05:02:34.957Z,16.48
2019-06-08T05:05:05.166Z,13.72
2019-06-08T05:07:33.525Z,15.45
2019-06-08T05:10:01.882Z,13.18
2019-06-08T05:12:30.262Z,15.00
2019-06-08T05:14:58.620Z,24.57
2019-06-08T05:17:27.086Z,16.37
2019-06-08T05:19:55.448Z,19.35
2019-06-08T05:22:23.886Z,19.30
2019-06-08T05:24:52.246Z,12.35
2019-06-08T05:27:20.630Z,19.12
2019-06-08T05:29:50.075Z,17.92
2019-06-08T05:32:18.744Z,12.43
2019-06-08T05:34:47.595Z,15.55
2019-06-08T05:37:15.981Z,15.60
2019-06-08T05:39:45.789Z,12.20
2019-06-08T05:42:15.295Z,12.78
2019-06-08T05:44:45.637Z,18.85
2019-06-08T05:47:14.068Z,14.60
2019-06-08T05:49:44.028Z,12.03
2019-06-08T05:52:12.500Z,12.40
2019-06-08T05:54:41.810Z,12.23
2019-06-08T05:57:10.203Z,11.97
2019-06-08T05:59:39.979Z,12.05
2019-06-08T06:02:08.400Z,16.93
2019-06-08T06:04:36.773Z,14.85
2019-06-08T06:07:05.130Z,14.73
2019-06-08T06:09:33.513Z,12.73
2019-06-08T06:12:01.889Z,14.47
2019-06-08T06:14:30.262Z,12.23
2019-06-08T06:16:58.621Z,16.25
2019-06-08T06:19:26.996Z,11.73
2019-06-08T06:21:55.362Z,15.13
2019-06-08T06:24:23.732Z,18.60
2019-06-08T06:26:52.086Z,11.53
2019-06-08T06:29:20.462Z,15.78
2019-06-08T06:31:49.761Z,10.68
2019-06-08T06:34:18.312Z,11.28
2019-06-08T06:36:47.705Z,14.78
2019-06-08T06:39:16.246Z,15.23
2019-06-08T06:41:45.919Z,14.10
2019-06-08T06:44:14.391Z,20.90
2019-06-08T06:46:43.929Z,10.13
2019-06-08T06:49:12.423Z,11.10
2019-06-08T06:51:40.723Z,16.85
2019-06-08T06:54:09.084Z,13.30
2019-06-08T06:56:37.442Z,12.70
2019-06-08T06:59:05.816Z,12.45
2019-06-08T07:01:34.168Z,13.68
2019-06-08T07:04:02.560Z,10.72
2019-06-08T07:06:30.938Z,10.25
2019-06-08T07:08:59.296Z,15.93
2019-06-08T07:11:27.660Z,15.50
2019-06-08T07:13:56.037Z,13.35
2019-06-08T07:16:24.398Z,13.98
2019-06-08T07:18:52.776Z,12.10
2019-06-08T07:21:21.128Z,16.55
2019-06-08T07:23:51.137Z,12.78
2019-06-08T07:26:19.509Z,14.95
2019-06-08T07:28:49.268Z,12.05
2019-06-08T07:31:17.879Z,15.28
2019-06-08T07:33:46.787Z,17.85
2019-06-08T07:36:16.192Z,13.75
2019-06-08T07:38:44.568Z,10.95
2019-06-08T07:41:12.942Z,14.25
2019-06-08T07:43:41.641Z,15.45
2019-06-08T07:46:09.992Z,19.37
2019-06-08T07:48:38.350Z,11.75
2019-06-08T07:51:06.738Z,18.27
2019-06-08T07:53:35.108Z,13.38
2019-06-08T07:56:03.467Z,17.35
2019-06-08T07:58:31.829Z,10.88
2019-06-08T08:01:07.739Z,15.95
2019-06-08T08:03:30.199Z,15.58
2019-06-08T08:05:58.642Z,25.70
2019-06-08T08:08:27.427Z,10.20
2019-06-08T08:10:56.738Z,15.93
2019-06-08T08:13:25.239Z,16.23
2019-06-08T08:15:55.041Z,12.78
2019-06-08T08:18:23.648Z,16.32
2019-06-08T08:20:53.017Z,16.02
2019-06-08T08:23:21.677Z,12.50
2019-06-08T08:25:50.467Z,11.33
2019-06-08T08:28:19.799Z,11.70
2019-06-08T08:30:50.515Z,14.95
2019-06-08T08:33:18.482Z,10.85
2019-06-08T08:35:48.199Z,11.25
2019-06-08T08:38:17.741Z,12.00
2019-06-08T08:40:48.425Z,13.70
2019-06-08T08:43:17.852Z,8.60
2019-06-08T08:45:47.678Z,12.88
2019-06-08T08:48:25.527Z,12.75
2019-06-08T08:50:48.290Z,17.52
2019-06-08T08:53:18.051Z,13.70
2019-06-08T08:55:48.055Z,10.10
2019-06-08T08:58:18.604Z,8.88
2019-06-08T09:00:48.655Z,15.60
2019-06-08T09:03:29.109Z,7.47
2019-06-08T09:05:48.272Z,8.68
2019-06-08T09:08:18.241Z,16.37
2019-06-08T09:10:48.054Z,9.58
2019-06-08T09:13:18.638Z,7.40
2019-06-08T09:15:47.980Z,15.58
2019-06-08T09:18:18.640Z,10.65
2019-06-08T09:20:47.889Z,9.73
2019-06-08T09:23:21.570Z,37.23
2019-06-08T09:25:48.375Z,13.53
2019-06-08T09:28:18.647Z,13.38
2019-06-08T09:30:48.413Z,10.23
2019-06-08T09:33:18.619Z,7.00
2019-06-08T09:35:47.910Z,10.10
2019-06-08T09:38:18.584Z,13.08
2019-06-08T09:40:48.752Z,8.48
2019-06-08T09:43:18.722Z,11.50
2019-06-08T09:45:48.289Z,7.87
2019-06-08T09:48:18.213Z,8.28
2019-06-08T09:50:48.513Z,8.65
2019-06-08T09:53:28.018Z,10.50
2019-06-08T09:55:48.143Z,7.15
2019-06-08T09:58:18.070Z,11.25
2019-06-08T10:00:48.384Z,13.50
2019-06-08T10:03:18.693Z,11.80
2019-06-08T10:05:48.416Z,10.18
2019-06-08T10:08:20.011Z,12.23
2019-06-08T10:10:48.414Z,8.58
2019-06-08T10:13:18.703Z,9.60
2019-06-08T10:15:51.177Z,9.90
2019-06-08T10:18:17.662Z,8.73
2019-06-08T10:20:48.207Z,16.30
2019-06-08T10:23:30.251Z,11.38
2019-06-08T10:25:48.182Z,10.38
2019-06-08T10:28:20.995Z,15.18
2019-06-08T10:30:48.477Z,11.10
2019-06-08T10:33:18.441Z,16.97
2019-06-08T10:35:47.999Z,12.28
2019-06-08T10:38:18.108Z,10.72
2019-06-08T10:41:10.171Z,13.48
2019-06-08T10:43:32.405Z,17.20
2019-06-08T10:46:07.732Z,12.18
2019-06-08T10:48:30.750Z,11.90
2019-06-08T10:51:02.293Z,10.38
2019-06-08T10:53:45.052Z,10.08
2019-06-08T10:55:59.799Z,7.60
2019-06-08T10:58:29.138Z,11.97
2019-06-08T11:01:00.164Z,13.68
2019-06-08T11:03:30.463Z,12.63
2019-06-08T11:06:00.452Z,11.55
2019-06-08T11:08:27.894Z,12.25
2019-06-08T11:10:57.906Z,8.85
2019-06-08T11:13:28.214Z,13.95
2019-06-08T11:15:58.667Z,11.10
2019-06-08T11:18:28.528Z,10.95
2019-06-08T11:20:59.471Z,15.00
2019-06-08T11:23:28.597Z,10.98
2019-06-08T11:26:03.256Z,12.95
2019-06-08T11:28:28.301Z,13.28
2019-06-08T11:30:56.336Z,11.53
2019-06-08T11:33:24.690Z,13.95
2019-06-08T11:35:53.076Z,13.75
2019-06-08T11:38:21.421Z,13.78
2019-06-08T11:40:49.797Z,17.92
2019-06-08T11:43:18.426Z,16.45
2019-06-08T11:45:48.045Z,11.85
2019-06-08T11:48:18.215Z,13.50
2019-06-08T11:50:48.866Z,10.13
2019-06-08T11:53:18.017Z,11.50
2019-06-08T11:55:48.179Z,12.40
2019-06-08T11:58:22.139Z,9.98
2019-06-08T12:00:55.301Z,10.23
2019-06-08T12:03:23.671Z,15.85
2019-06-08T12:05:52.032Z,15.13
2019-06-08T12:08:21.756Z,14.20
2019-06-08T12:10:50.049Z,13.38
2019-06-08T12:13:18.476Z,18.35
2019-06-08T12:15:48.854Z,12.25
2019-06-08T12:18:18.198Z,18.70
2019-06-08T12:20:48.890Z,14.25
2019-06-08T12:23:16.840Z,13.53
2019-06-08T12:25:45.215Z,13.93
2019-06-08T12:28:14.502Z,12.85
2019-06-08T12:30:43.292Z,12.98
2019-06-08T12:33:12.673Z,15.58
2019-06-08T12:35:41.679Z,16.20
2019-06-08T12:38:11.200Z,9.73
2019-06-08T12:40:41.151Z,13.65
2019-06-08T12:43:11.678Z,15.88
2019-06-08T12:45:39.666Z,11.85
2019-06-08T12:48:09.853Z,19.85
2019-06-08T12:50:38.639Z,14.03
2019-06-08T12:53:11.192Z,14.70
2019-06-08T12:55:37.746Z,14.53
2019-06-08T12:58:08.115Z,12.23
2019-06-08T13:00:38.072Z,24.10
2019-06-08T13:03:08.631Z,12.07
2019-06-08T13:05:37.988Z,21.62
2019-06-08T13:08:08.424Z,13.40
2019-06-08T13:10:38.220Z,13.90
2019-06-08T13:13:08.427Z,14.30
2019-06-08T13:15:38.422Z,12.28
2019-06-08T13:18:08.526Z,14.47
2019-06-08T13:20:38.755Z,11.28
2019-06-08T13:23:08.670Z,12.85
2019-06-08T13:25:40.967Z,13.53
2019-06-08T13:28:08.768Z,12.18
2019-06-08T13:30:38.819Z,18.15
2019-06-08T13:33:08.156Z,13.38
2019-06-08T13:35:39.217Z,11.90
2019-06-08T13:38:08.670Z,16.62
2019-06-08T13:40:39.925Z,16.42
2019-06-08T13:43:08.135Z,23.22
2019-06-08T13:45:39.096Z,16.80
2019-06-08T13:48:08.741Z,15.18
2019-06-08T13:50:36.763Z,12.25
2019-06-08T13:53:05.208Z,17.02
2019-06-08T13:55:48.383Z,21.17
2019-06-08T13:58:03.587Z,10.70
2019-06-08T14:00:38.128Z,18.25
2019-06-08T14:03:08.494Z,18.12
2019-06-08T14:05:38.918Z,13.18
2019-06-08T14:08:10.565Z,13.25
2019-06-08T14:10:38.922Z,14.18
2019-06-08T14:13:07.392Z,15.00
2019-06-08T14:15:37.682Z,11.88
2019-06-08T14:18:08.506Z,12.10
2019-06-08T14:20:38.260Z,10.28
2019-06-08T14:23:05.792Z,12.30
2019-06-08T14:25:49.769Z,16.75
2019-06-08T14:28:04.146Z,13.68
2019-06-08T14:30:33.301Z,12.80
2019-06-08T14:33:01.798Z,13.70
2019-06-08T14:35:30.165Z,15.10
2019-06-08T14:37:58.519Z,16.48
2019-06-08T14:40:31.019Z,12.37
2019-06-08T14:42:58.086Z,10.70
2019-06-08T14:45:28.885Z,9.10
2019-06-08T14:47:58.596Z,13.18
2019-06-08T14:50:29.288Z,11.08
2019-06-08T14:52:58.803Z,29.42
2019-06-08T14:55:29.699Z,11.45
2019-06-08T14:57:58.051Z,12.50
2019-06-08T15:00:27.758Z,10.90
2019-06-08T15:02:59.016Z,13.10
2019-06-08T15:05:28.868Z,17.37
2019-06-08T15:08:00.431Z,9.88
2019-06-08T15:10:28.486Z,8.10
2019-06-08T15:12:57.805Z,8.35
2019-06-08T15:15:28.867Z,11.57
2019-06-08T15:17:58.234Z,11.15
2019-06-08T15:20:26.513Z,13.05
2019-06-08T15:22:54.863Z,8.35
2019-06-08T15:25:23.224Z,6.08
2019-06-08T15:27:51.600Z,6.45
2019-06-08T15:30:21.108Z,9.85
2019-06-08T15:32:49.916Z,7.22
2019-06-08T15:35:18.281Z,9.03
2019-06-08T15:37:47.837Z,7.78
2019-06-08T15:40:17.729Z,9.25
2019-06-08T15:42:48.222Z,7.42
2019-06-08T15:45:18.291Z,10.58
2019-06-08T15:47:48.109Z,8.95
2019-06-08T15:50:17.994Z,6.25
2019-06-08T15:52:48.168Z,8.13
2019-06-08T15:55:18.804Z,9.73
2019-06-08T15:57:46.340Z,6.47
2019-06-08T16:00:14.701Z,3.95
2019-06-08T16:02:43.065Z,12.00
2019-06-08T16:05:11.503Z,12.10
2019-06-08T16:07:39.864Z,8.95
2019-06-08T16:10:08.563Z,5.50
2019-06-08T16:12:36.937Z,8.95
2019-06-08T16:15:07.966Z,5.47
2019-06-08T16:17:36.322Z,4.60
2019-06-08T16:20:05.486Z,13.20
2019-06-08T16:22:33.988Z,7.72
2019-06-08T16:25:02.344Z,6.25
2019-06-08T16:27:32.019Z,6.05
2019-06-08T16:30:00.673Z,5.20
2019-06-08T16:32:29.278Z,4.95
2019-06-08T16:34:57.734Z,5.70
2019-06-08T16:37:27.392Z,10.35
2019-06-08T16:39:55.926Z,7.97
2019-06-08T16:42:24.277Z,6.28
2019-06-08T16:44:52.647Z,7.28
2019-06-08T16:47:20.923Z,5.22
2019-06-08T16:49:49.292Z,6.10
2019-06-08T16:52:17.645Z,6.80
2019-06-08T16:54:46.027Z,6.85
2019-06-08T16:57:14.380Z,7.53
2019-06-08T16:59:42.740Z,7.17
2019-06-08T17:02:11.119Z,7.67
2019-06-08T17:04:39.460Z,5.83
2019-06-08T17:07:07.824Z,7.25
2019-06-08T17:09:36.188Z,8.98
2019-06-08T17:12:04.556Z,7.40
2019-06-08T17:14:34.027Z,4.42
2019-06-08T17:17:02.695Z,3.83
2019-06-08T17:19:32.053Z,7.72
2019-06-08T17:22:00.614Z,8.23
2019-06-08T17:24:30.269Z,6.10
2019-06-08T17:26:58.858Z,5.85
2019-06-08T17:29:27.193Z,6.33
2019-06-08T17:31:55.549Z,4.00
2019-06-08T17:34:23.920Z,4.92
2019-06-08T17:36:52.266Z,5.60
2019-06-08T17:39:20.629Z,7.08
2019-06-08T17:41:52.361Z,5.15
2019-06-08T17:44:20.789Z,13.70
2019-06-08T17:46:49.109Z,5.20
2019-06-08T17:49:17.467Z,3.15
2019-06-08T17:51:45.800Z,4.37
2019-06-08T17:54:14.186Z,6.30
2019-06-08T17:56:43.498Z,6.03
2019-06-08T17:59:11.911Z,4.87
2019-06-08T18:01:41.646Z,6.60
2019-06-08T18:04:10.336Z,8.75
2019-06-08T18:06:40.232Z,3.92
2019-06-08T18:09:08.769Z,6.90
2019-06-08T18:11:39.872Z,3.10
2019-06-08T18:14:07.436Z,5.03
2019-06-08T18:16:39.207Z,4.70
2019-06-08T18:19:08.076Z,3.40
2019-06-08T18:21:38.843Z,6.65
2019-06-08T18:24:07.762Z,4.03
2019-06-08T18:26:38.346Z,8.20
2019-06-08T18:29:07.904Z,5.55
2019-06-08T18:31:39.558Z,3.87
2019-06-08T18:34:08.272Z,4.37
2019-06-08T18:36:39.188Z,5.85
2019-06-08T18:39:07.199Z,5.95
2019-06-08T18:41:37.845Z,3.47
2019-06-08T18:44:08.239Z,6.03
2019-06-08T18:46:37.559Z,5.75
2019-06-08T18:49:08.083Z,3.30
2019-06-08T18:51:38.151Z,2.50
2019-06-08T18:54:14.006Z,6.83
2019-06-08T18:56:40.064Z,3.00
2019-06-08T18:59:07.707Z,4.30
2019-06-08T19:01:39.108Z,4.78
2019-06-08T19:04:07.656Z,3.50
2019-06-08T19:06:37.803Z,5.12
2019-06-08T19:09:07.632Z,5.87
2019-06-08T19:11:37.665Z,4.22
2019-06-08T19:14:07.189Z,5.33
2019-06-08T19:16:36.949Z,4.78
2019-06-08T19:19:07.460Z,4.22
2019-06-08T19:21:37.513Z,5.08
2019-06-08T19:24:09.649Z,9.48
2019-06-08T19:26:39.374Z,5.12
2019-06-08T19:29:07.727Z,7.53
2019-06-08T19:31:38.624Z,3.52
2019-06-08T19:34:07.623Z,6.08
2019-06-08T19:36:38.756Z,7.60
2019-06-08T19:39:07.963Z,13.22
2019-06-08T19:41:38.126Z,6.33
2019-06-08T19:44:07.555Z,3.42
2019-06-08T19:46:36.122Z,4.50
2019-06-08T19:49:04.477Z,6.25
2019-06-08T19:51:32.825Z,3.98
2019-06-08T19:54:01.211Z,12.50
2019-06-08T19:56:29.563Z,4.53
2019-06-08T19:59:04.010Z,4.10
2019-06-08T20:19:08.106Z,5.92
2019-06-08T21:13:02.424Z,4.67
2019-06-08T21:15:30.794Z,4.78
2019-06-08T21:17:59.152Z,7.90
2019-06-08T21:20:28.260Z,4.08
2019-06-08T21:22:59.636Z,4.12
2019-06-08T21:25:28.127Z,3.77
2019-06-08T21:27:58.421Z,6.65
2019-06-08T21:30:28.814Z,3.90
2019-06-08T21:33:00.610Z,4.00
2019-06-08T21:35:27.212Z,5.15
2019-06-08T21:37:59.706Z,7.05
2019-06-08T21:40:28.156Z,4.62
2019-06-08T21:42:59.954Z,2.67
2019-06-08T21:45:27.634Z,2.62
2019-06-08T21:47:59.004Z,3.55
2019-06-08T21:50:27.542Z,6.60
2019-06-08T21:57:06.564Z,5.20
2019-06-08T21:59:33.957Z,4.55
2019-06-08T22:02:04.029Z,4.33
2019-06-08T22:04:32.449Z,3.47
2019-06-08T22:07:01.617Z,5.20
2019-06-08T22:09:30.833Z,3.65
2019-06-08T22:12:00.940Z,6.78
2019-06-08T22:14:29.244Z,4.85
2019-06-08T22:17:00.947Z,5.95
2019-06-08T22:19:27.610Z,4.67
2019-06-08T22:21:58.452Z,7.47
2019-06-08T22:24:27.770Z,11.03
2019-06-08T22:26:58.616Z,7.58
2019-06-08T22:29:27.560Z,5.70
2019-06-08T22:31:56.091Z,4.08
2019-06-08T22:34:24.448Z,8.15
2019-06-08T22:36:54.138Z,4.78
2019-06-08T22:39:22.782Z,4.87
2019-06-08T22:41:51.412Z,8.33
2019-06-08T22:44:19.912Z,6.72
2019-06-08T22:46:48.279Z,6.67
2019-06-08T22:49:18.627Z,5.87
2019-06-08T22:51:47.738Z,5.20
2019-06-08T22:54:17.111Z,4.62
2019-06-08T22:56:47.667Z,4.45
2019-06-08T22:59:17.496Z,6.33
2019-06-08T23:01:47.603Z,3.45
2019-06-08T23:04:18.242Z,11.08
2019-06-08T23:06:47.535Z,6.62
2019-06-08T23:09:17.814Z,4.55
2019-06-08T23:11:47.102Z,10.13
2019-06-08T23:14:17.897Z,4.25
2019-06-08T23:16:47.218Z,3.47
2019-06-08T23:19:17.425Z,6.70
2019-06-08T23:21:47.518Z,4.45
2019-06-08T23:24:17.944Z,6.25
2019-06-08T23:26:47.866Z,5.85
2019-06-08T23:29:17.754Z,6.87
2019-06-08T23:31:47.768Z,4.90
2019-06-08T23:34:18.157Z,4.90
2019-06-08T23:36:57.575Z,5.75
2019-06-08T23:39:17.919Z,8.50
2019-06-08T23:41:48.124Z,3.80
2019-06-08T23:44:17.653Z,3.08
2019-06-08T23:46:47.680Z,4.67
2019-06-08T23:49:18.485Z,6.70
2019-06-08T23:51:47.556Z,8.18
2019-06-08T23:54:18.223Z,7.62
2019-06-08T23:56:47.686Z,4.90
2019-06-08T23:59:17.743Z,14.58
